This is the latest recevied weather packets stored in our database for station/object W8MRL. If no packets are shown the sender has not sent any weather packets the latest 10 day(s).
| Time | Temp. | Humidity | Pressure | Rain* | Wind** | Luminosity | Snow |
|---|---|---|---|---|---|---|---|
| 1777957250 | 19.44° C | 66% | 1008.7 hPa | 0 mm | - | - | - |
| 1777956359 | 18.89° C | 67% | 1008.8 hPa | 0 mm | - | - | - |
| 1777955449 | 19.44° C | 68% | 1008.9 hPa | 0 mm | - | - | - |
| 1777954548 | 19.44° C | 67% | 1009.1 hPa | 0 mm | - | - | - |
| 1777953641 | 19.44° C | 68% | 1009.4 hPa | 0 mm | - | - | - |
| 1777952741 | 19.44° C | 68% | 1009.4 hPa | 0 mm | - | - | - |
| 1777951843 | 19.44° C | 69% | 1009.4 hPa | 0 mm | - | - | - |
| 1777950953 | 18.89° C | 70% | 1009.6 hPa | 0 mm | - | - | - |
| 1777950042 | 18.33° C | 72% | 1009.4 hPa | 0 mm | - | - | - |
| 1777949147 | 17.22° C | 75% | 1009.4 hPa | 0 mm | - | - | - |
| 1777948242 | 16.67° C | 77% | 1009.2 hPa | 0 mm | - | - | - |
| 1777947337 | 16.11° C | 79% | 1008.8 hPa | 0 mm | - | - | - |
| 1777946436 | 16.67° C | 78% | 1008.6 hPa | 0 mm | - | - | - |
| 1777945558 | 17.78° C | 73% | 1008.4 hPa | 0 mm | - | - | - |
| 1777944637 | 19.44° C | 68% | 1008.3 hPa | 0 mm | - | - | - |
| 1777943745 | 20° C | 64% | 1008.2 hPa | 0 mm | - | - | - |
| 1777942835 | 20.56° C | 63% | 1008.1 hPa | 0 mm | - | - | - |
| 1777941934 | 21.11° C | 61% | 1008.2 hPa | 0 mm | - | - | - |
| 1777941033 | 21.67° C | 59% | 1008.2 hPa | 0 mm | - | - | - |
| 1777940132 | 22.22° C | 57% | 1008.3 hPa | 0 mm | - | - | - |
| 1777939232 | 22.78° C | 55% | 1008.4 hPa | 0 mm | - | - | - |
| 1777938329 | 23.33° C | 54% | 1008.5 hPa | 0 mm | - | - | - |
| 1777937428 | 23.33° C | 58% | 1008.7 hPa | 0 mm | - | - | - |
| 1777936527 | 23.89° C | 55% | 1008.7 hPa | 0 mm | - | - | - |
| 1777935686 | 23.89° C | 57% | 1008.8 hPa | 0 mm | - | - | - |
* Rain latest hour (hover to see other rain measurements)
** Current wind speed in m/s (hover to see current wind gust speed)